Time;durP1;ratioP1;P1;durP2;ratioP2;P2;SDS_P1;SDS_P2;PMS_P1;PMS_P2;Temp;Humidity;BMP_temperature;BMP_pressure;BME280_temperature;BME280_humidity;BME280_pressure;Samples;Min_cycle;Max_cycle;Signal;HPM_P1;HPM_P2
2021/09/06 00:00:01;;;;;;;8.20;6.30;;;16.70;80.70;;;;;;5062003;28;20066;-63
2021/09/06 00:02:27;;;;;;;8.98;6.60;;;16.60;80.80;;;;;;5057952;28;20021;-63
2021/09/06 00:04:52;;;;;;;9.55;6.82;;;16.50;81.10;;;;;;5061930;28;20032;-63
2021/09/06 00:07:17;;;;;;;9.02;7.57;;;16.50;81.30;;;;;;5057040;28;20025;-63
2021/09/06 00:09:47;;;;;;;11.48;7.75;;;16.40;81.50;;;;;;5041487;28;20017;-63
2021/09/06 00:12:12;;;;;;;8.35;5.70;;;16.40;81.70;;;;;;5057954;28;20447;-63
2021/09/06 00:14:38;;;;;;;9.40;6.60;;;16.30;81.80;;;;;;5063300;28;20029;-63
2021/09/06 00:17:03;;;;;;;8.48;6.43;;;16.20;82.00;;;;;;5059965;28;20166;-63
2021/09/06 00:19:29;;;;;;;9.63;6.30;;;16.10;82.40;;;;;;5046652;28;20075;-63
2021/09/06 00:21:55;;;;;;;7.88;6.35;;;16.10;82.50;;;;;;5062966;28;20036;-63
2021/09/06 00:24:20;;;;;;;11.55;6.88;;;16.10;82.80;;;;;;5062901;28;20024;-63
2021/09/06 00:26:46;;;;;;;11.10;6.95;;;16.00;82.90;;;;;;5058385;28;20027;-63
2021/09/06 00:29:11;;;;;;;8.18;6.40;;;16.00;83.00;;;;;;5063783;28;20472;-63
2021/09/06 00:31:37;;;;;;;9.63;6.93;;;15.90;83.20;;;;;;5060021;28;20021;-63
2021/09/06 00:34:02;;;;;;;10.80;8.07;;;15.90;83.40;;;;;;5067280;28;20025;-63
2021/09/06 00:36:28;;;;;;;10.32;7.65;;;15.90;83.50;;;;;;5047975;28;20473;-63
2021/09/06 00:38:53;;;;;;;12.65;7.88;;;15.80;83.70;;;;;;5064656;28;20515;-63
2021/09/06 00:41:20;;;;;;;9.57;7.13;;;15.80;83.90;;;;;;5062839;28;20500;-63
2021/09/06 00:43:47;;;;;;;11.43;7.32;;;15.70;84.10;;;;;;5068851;28;20079;-63
2021/09/06 00:46:12;;;;;;;9.52;7.03;;;15.70;84.30;;;;;;5048938;28;20116;-63
2021/09/06 00:48:38;;;;;;;8.85;7.30;;;15.70;84.50;;;;;;5065383;28;20044;-63
2021/09/06 00:51:04;;;;;;;10.88;7.60;;;15.60;84.60;;;;;;5068835;28;20027;-63
2021/09/06 00:53:29;;;;;;;10.98;7.93;;;15.60;85.50;;;;;;5065438;28;20074;-63
2021/09/06 00:55:55;;;;;;;10.88;7.45;;;15.50;85.00;;;;;;5074196;28;20070;-63
2021/09/06 00:58:22;;;;;;;9.00;6.55;;;15.50;85.10;;;;;;5049449;28;20029;-63
2021/09/06 01:00:47;;;;;;;8.15;5.68;;;15.40;85.30;;;;;;5047403;28;20031;-63
2021/09/06 01:03:13;;;;;;;7.25;5.75;;;15.40;85.60;;;;;;5064062;28;20103;-63
2021/09/06 01:05:39;;;;;;;9.38;6.80;;;15.40;85.80;;;;;;5051999;28;20549;-63
2021/09/06 01:08:04;;;;;;;9.45;7.03;;;15.40;86.00;;;;;;5048248;28;20032;-63
2021/09/06 01:10:30;;;;;;;10.18;7.22;;;15.40;86.20;;;;;;5063822;28;20036;-63
2021/09/06 01:12:55;;;;;;;10.20;7.68;;;15.40;86.20;;;;;;5049313;28;20025;-63
2021/09/06 01:15:21;;;;;;;9.90;6.97;;;15.30;86.30;;;;;;5064227;28;20090;-63
2021/09/06 01:17:46;;;;;;;8.52;6.15;;;15.30;86.40;;;;;;5066196;28;20036;-63
2021/09/06 01:20:13;;;;;;;10.10;6.65;;;15.30;86.70;;;;;;5052118;28;20024;-63
2021/09/06 01:22:39;;;;;;;10.07;7.50;;;15.20;86.80;;;;;;5065720;28;20021;-63
2021/09/06 01:25:05;;;;;;;10.68;7.55;;;15.20;87.10;;;;;;5060682;28;20032;-63
2021/09/06 01:27:31;;;;;;;11.23;8.05;;;15.20;87.10;;;;;;5064787;28;20025;-63
2021/09/06 01:29:57;;;;;;;9.32;7.60;;;15.20;87.30;;;;;;5065476;28;20029;-63
2021/09/06 01:32:23;;;;;;;10.35;7.93;;;15.20;87.50;;;;;;5058778;28;20045;-63
2021/09/06 01:34:49;;;;;;;11.68;7.90;;;15.20;87.70;;;;;;5057658;28;20504;-63
2021/09/06 01:37:16;;;;;;;10.68;7.93;;;15.20;88.00;;;;;;5049330;28;20098;-63
2021/09/06 01:39:42;;;;;;;9.32;7.45;;;15.20;88.10;;;;;;5065248;28;20025;-63
2021/09/06 01:42:08;;;;;;;10.48;7.85;;;15.10;88.20;;;;;;5062868;28;20041;-63
2021/09/06 01:44:33;;;;;;;9.70;7.63;;;15.10;88.40;;;;;;5065302;28;20095;-63
2021/09/06 01:46:59;;;;;;;11.10;8.10;;;15.10;88.60;;;;;;5063201;28;20116;-63
2021/09/06 01:49:24;;;;;;;12.35;8.13;;;15.10;88.60;;;;;;5057753;28;20388;-63
2021/09/06 01:51:50;;;;;;;12.05;8.32;;;15.10;88.90;;;;;;5061480;28;20476;-63
2021/09/06 01:54:15;;;;;;;9.70;7.80;;;15.00;89.00;;;;;;5062708;28;20020;-63
2021/09/06 01:56:41;;;;;;;10.70;8.70;;;15.00;89.10;;;;;;5068372;28;20071;-63
2021/09/06 01:59:06;;;;;;;10.50;7.43;;;15.00;89.30;;;;;;5062469;28;20025;-63
2021/09/06 02:01:32;;;;;;;10.15;8.10;;;15.00;89.50;;;;;;5065440;28;20392;-63
2021/09/06 02:03:57;;;;;;;14.00;9.00;;;15.00;89.60;;;;;;5058332;28;20020;-63
2021/09/06 02:06:23;;;;;;;12.13;8.63;;;15.00;89.70;;;;;;5064521;28;20020;-63
2021/09/06 02:08:49;;;;;;;11.70;8.13;;;14.90;89.70;;;;;;5063929;28;20028;-63
2021/09/06 02:11:14;;;;;;;13.77;8.60;;;14.90;89.90;;;;;;5065068;28;20060;-63
2021/09/06 02:13:40;;;;;;;10.85;8.70;;;14.90;90.00;;;;;;5064565;28;20023;-63
2021/09/06 02:16:05;;;;;;;11.52;8.18;;;14.90;90.10;;;;;;5061394;28;20033;-63
2021/09/06 02:18:31;;;;;;;10.20;8.10;;;14.80;90.10;;;;;;5061161;28;20033;-63
2021/09/06 02:20:56;;;;;;;11.18;7.90;;;14.80;90.20;;;;;;5063192;28;20503;-63
2021/09/06 02:23:22;;;;;;;12.40;8.35;;;14.80;90.20;;;;;;5056803;28;20096;-63
2021/09/06 02:25:48;;;;;;;10.65;8.20;;;14.80;90.30;;;;;;5044102;28;20021;-63
2021/09/06 02:28:13;;;;;;;11.02;8.05;;;14.80;90.40;;;;;;5048561;28;20068;-63
2021/09/06 02:30:39;;;;;;;9.85;7.85;;;14.80;90.40;;;;;;5058265;28;20021;-63
2021/09/06 02:33:04;;;;;;;10.80;7.72;;;14.80;90.50;;;;;;5064826;28;20028;-63
2021/09/06 02:35:30;;;;;;;11.98;8.25;;;14.70;90.60;;;;;;5065493;28;20024;-63
2021/09/06 02:37:55;;;;;;;11.52;8.68;;;14.60;90.70;;;;;;5050685;28;20020;-63
2021/09/06 02:40:21;;;;;;;12.68;9.65;;;14.60;90.80;;;;;;5047942;28;20577;-63
2021/09/06 02:42:47;;;;;;;14.48;9.77;;;14.50;90.90;;;;;;5068358;28;20127;-63
2021/09/06 02:45:13;;;;;;;13.20;9.45;;;14.50;91.00;;;;;;5053886;28;20031;-63
2021/09/06 02:47:38;;;;;;;11.90;8.93;;;14.50;91.20;;;;;;5056176;28;20029;-63
2021/09/06 02:50:04;;;;;;;13.98;9.40;;;14.50;91.30;;;;;;5062129;28;20086;-63
2021/09/06 02:52:33;;;;;;;12.48;9.50;;;14.50;91.30;;;;;;5057608;28;20548;-63
2021/09/06 02:54:59;;;;;;;14.63;9.75;;;14.50;91.30;;;;;;5062751;28;20104;-63
2021/09/06 02:57:24;;;;;;;13.32;9.48;;;14.50;91.30;;;;;;5060320;28;20556;-63
2021/09/06 02:59:50;;;;;;;11.50;8.48;;;14.50;91.40;;;;;;5060922;28;20472;-63
2021/09/06 03:02:16;;;;;;;11.77;9.18;;;14.50;91.40;;;;;;5038569;28;20062;-63
2021/09/06 03:04:42;;;;;;;11.93;8.32;;;14.50;91.40;;;;;;5060550;28;20025;-63
2021/09/06 03:07:08;;;;;;;12.60;9.18;;;14.50;91.50;;;;;;5058631;28;20028;-63
2021/09/06 03:09:33;;;;;;;11.25;8.65;;;14.50;91.50;;;;;;5058125;28;20467;-63
2021/09/06 03:11:59;;;;;;;11.82;8.32;;;14.50;91.60;;;;;;5061704;28;20074;-63
2021/09/06 03:14:24;;;;;;;12.60;8.90;;;14.40;91.60;;;;;;5059125;28;20104;-63
2021/09/06 03:16:51;;;;;;;14.75;9.45;;;14.40;91.70;;;;;;5054756;28;20056;-63
2021/09/06 03:19:17;;;;;;;11.90;9.43;;;14.40;91.70;;;;;;5054222;28;20107;-63
2021/09/06 03:21:42;;;;;;;10.80;8.43;;;14.30;91.80;;;;;;5066357;28;20028;-63
2021/09/06 03:24:08;;;;;;;11.45;9.05;;;14.40;91.80;;;;;;5062548;28;20029;-63
2021/09/06 03:26:33;;;;;;;12.15;9.02;;;14.30;91.80;;;;;;5042505;28;20062;-63
2021/09/06 03:28:59;;;;;;;11.60;8.80;;;14.40;91.90;;;;;;5046399;28;20016;-63
2021/09/06 03:31:24;;;;;;;12.18;9.15;;;14.30;92.00;;;;;;5061218;28;20036;-63
2021/09/06 03:33:50;;;;;;;13.60;10.00;;;14.30;92.00;;;;;;5065474;28;20476;-63
2021/09/06 03:36:16;;;;;;;12.80;9.75;;;14.30;92.00;;;;;;5050313;28;20020;-63
2021/09/06 03:38:41;;;;;;;12.68;9.60;;;14.30;92.10;;;;;;5062456;28;20424;-63
2021/09/06 03:41:07;;;;;;;12.63;9.32;;;14.30;92.20;;;;;;5069810;28;20040;-63
2021/09/06 03:43:33;;;;;;;14.43;9.88;;;14.20;92.20;;;;;;5060411;28;20400;-63
2021/09/06 03:45:58;;;;;;;12.55;9.52;;;14.20;92.30;;;;;;5063372;28;20017;-63
2021/09/06 03:48:24;;;;;;;12.18;9.52;;;14.20;92.30;;;;;;5065715;28;20048;-63
2021/09/06 03:50:49;;;;;;;12.93;9.48;;;14.20;92.30;;;;;;5059750;28;20025;-63
2021/09/06 03:53:15;;;;;;;13.88;10.65;;;14.20;92.40;;;;;;5033570;28;20536;-63
2021/09/06 03:55:40;;;;;;;12.70;9.50;;;14.20;92.50;;;;;;5059954;28;20040;-63
2021/09/06 03:58:06;;;;;;;11.88;9.13;;;14.20;92.50;;;;;;5063900;28;20025;-63
2021/09/06 04:00:32;;;;;;;12.80;9.45;;;14.10;92.50;;;;;;5057435;28;20096;-63
2021/09/06 04:02:57;;;;;;;13.70;8.90;;;14.10;92.60;;;;;;5045719;28;20013;-63
2021/09/06 04:05:22;;;;;;;13.00;9.65;;;14.10;92.60;;;;;;5062339;28;20041;-63
2021/09/06 04:07:48;;;;;;;14.15;9.57;;;14.10;92.70;;;;;;5044143;28;20028;-63
2021/09/06 04:10:14;;;;;;;12.95;8.23;;;14.00;92.70;;;;;;5059553;28;20020;-63
2021/09/06 04:12:39;;;;;;;8.48;5.95;;;14.00;92.70;;;;;;5069100;28;20017;-63
2021/09/06 04:15:08;;;;;;;9.07;7.43;;;13.90;92.80;;;;;;5068020;28;20107;-63
2021/09/06 04:17:33;;;;;;;9.05;7.07;;;13.90;92.80;;;;;;5050641;28;20540;-63
2021/09/06 04:19:59;;;;;;;9.90;6.93;;;13.80;92.80;;;;;;5070351;28;20146;-63
2021/09/06 04:22:24;;;;;;;8.90;5.88;;;13.90;92.90;;;;;;5067452;28;20036;-63
2021/09/06 04:24:50;;;;;;;6.43;5.15;;;13.80;92.90;;;;;;5062916;28;20025;-63
2021/09/06 04:27:16;;;;;;;8.50;5.55;;;13.80;92.90;;;;;;5063128;28;20023;-63
2021/09/06 04:29:42;;;;;;;9.35;6.32;;;13.70;92.90;;;;;;5060331;28;20020;-63
2021/09/06 04:32:07;;;;;;;11.23;6.80;;;13.70;93.10;;;;;;5069071;28;20078;-63
2021/09/06 04:34:33;;;;;;;10.75;7.28;;;13.60;93.10;;;;;;5065013;28;20033;-63
2021/09/06 04:36:58;;;;;;;9.45;7.35;;;13.60;93.10;;;;;;5056737;28;20506;-63
2021/09/06 04:39:24;;;;;;;7.63;5.93;;;13.60;93.10;;;;;;5062913;28;20017;-63
2021/09/06 04:41:50;;;;;;;8.20;6.47;;;13.60;93.10;;;;;;5062626;28;20041;-63
2021/09/06 04:44:17;;;;;;;8.48;6.15;;;13.50;93.10;;;;;;5065433;28;20040;-62
2021/09/06 04:46:42;;;;;;;8.82;6.88;;;13.50;93.20;;;;;;5064897;28;20043;-63
2021/09/06 04:49:08;;;;;;;9.57;6.90;;;13.50;93.20;;;;;;5039477;28;20133;-63
2021/09/06 04:51:34;;;;;;;10.48;6.80;;;13.50;93.20;;;;;;5057272;28;20381;-63
2021/09/06 04:53:59;;;;;;;9.85;6.93;;;13.50;93.20;;;;;;5060756;28;20021;-63
2021/09/06 04:56:25;;;;;;;10.60;8.25;;;13.50;93.20;;;;;;5044843;28;20026;-63
2021/09/06 04:58:50;;;;;;;10.70;7.85;;;13.40;93.10;;;;;;5068969;28;20031;-63
2021/09/06 05:01:17;;;;;;;10.18;6.72;;;13.40;93.20;;;;;;5062944;28;20617;-63
2021/09/06 05:03:43;;;;;;;7.63;5.43;;;13.40;93.20;;;;;;5062535;28;20028;-63
2021/09/06 05:06:08;;;;;;;8.20;6.03;;;13.40;93.30;;;;;;5061220;28;20040;-63
2021/09/06 05:08:34;;;;;;;8.15;5.70;;;13.30;93.30;;;;;;5062873;28;20036;-63
2021/09/06 05:10:59;;;;;;;6.50;4.68;;;13.30;93.40;;;;;;5042033;28;20017;-63
2021/09/06 05:13:25;;;;;;;6.93;5.50;;;13.30;93.50;;;;;;5047615;28;20037;-63
2021/09/06 05:15:51;;;;;;;7.30;5.38;;;13.30;93.50;;;;;;5058068;28;20450;-62
2021/09/06 05:18:17;;;;;;;8.55;6.13;;;13.30;93.50;;;;;;5054610;28;20048;-62
2021/09/06 05:20:42;;;;;;;8.07;5.85;;;13.30;93.50;;;;;;5054674;28;20061;-63
2021/09/06 05:23:08;;;;;;;9.20;7.15;;;13.30;93.60;;;;;;5054716;28;20056;-62
2021/09/06 05:25:34;;;;;;;10.00;6.60;;;13.30;93.60;;;;;;5054633;28;20056;-62
2021/09/06 05:28:00;;;;;;;8.98;6.32;;;13.30;93.60;;;;;;5054576;28;20039;-62
2021/09/06 05:30:25;;;;;;;10.32;7.18;;;13.30;93.70;;;;;;5054587;28;20064;-62
2021/09/06 05:32:51;;;;;;;8.95;6.45;;;13.30;93.80;;;;;;5054067;28;20104;-62
2021/09/06 05:35:16;;;;;;;7.00;5.55;;;13.30;93.80;;;;;;5054357;28;20025;-63
2021/09/06 05:37:42;;;;;;;8.98;6.93;;;13.30;93.80;;;;;;5062133;28;20526;-62
2021/09/06 05:40:08;;;;;;;7.40;5.40;;;13.30;93.90;;;;;;5070643;28;20045;-62
2021/09/06 05:42:34;;;;;;;8.35;6.25;;;13.30;93.90;;;;;;5074004;28;20027;-62
2021/09/06 05:44:59;;;;;;;7.93;6.50;;;13.40;93.90;;;;;;5040513;28;20025;-62
2021/09/06 05:47:25;;;;;;;7.80;5.65;;;13.40;94.00;;;;;;5054328;28;20056;-62
2021/09/06 05:49:50;;;;;;;8.52;6.45;;;13.40;94.00;;;;;;5063509;28;20055;-62
2021/09/06 05:52:16;;;;;;;9.23;6.35;;;13.40;94.10;;;;;;5070815;28;20530;-62
2021/09/06 05:54:42;;;;;;;10.20;6.85;;;13.40;94.10;;;;;;5073388;28;20037;-62
2021/09/06 05:57:07;;;;;;;10.75;7.50;;;13.40;94.20;;;;;;5068066;28;20052;-62
2021/09/06 05:59:33;;;;;;;8.80;6.53;;;13.50;94.20;;;;;;5054164;28;20108;-63
2021/09/06 06:01:58;;;;;;;8.15;6.10;;;13.50;94.20;;;;;;5053964;28;20025;-62
2021/09/06 06:04:47;;;;;;;9.80;7.10;;;13.50;94.20;;;;;;5054022;28;20032;-62
2021/09/06 06:07:12;;;;;;;9.35;7.05;;;13.50;94.30;;;;;;5030931;28;20018;-63
2021/09/06 06:09:38;;;;;;;11.43;8.35;;;13.50;94.30;;;;;;5045037;28;20100;-63
2021/09/06 06:12:04;;;;;;;12.27;9.02;;;13.60;94.30;;;;;;5053680;28;20033;-63
2021/09/06 06:14:29;;;;;;;13.82;9.45;;;13.60;94.30;;;;;;5062814;28;20068;-63
2021/09/06 06:16:55;;;;;;;17.95;10.48;;;13.70;94.30;;;;;;5069991;28;20032;-62
2021/09/06 06:19:20;;;;;;;15.00;10.85;;;13.70;94.40;;;;;;5070515;28;20037;-62
2021/09/06 06:21:46;;;;;;;19.92;12.02;;;13.70;94.40;;;;;;5058711;28;20025;-63
2021/09/06 06:24:11;;;;;;;16.30;12.07;;;13.80;94.50;;;;;;5053596;28;20155;-62
2021/09/06 06:26:37;;;;;;;17.98;12.65;;;13.80;94.60;;;;;;5064091;28;20108;-63
2021/09/06 06:29:02;;;;;;;15.82;12.50;;;13.90;94.70;;;;;;5072816;28;20361;-62
2021/09/06 06:31:28;;;;;;;17.63;13.05;;;13.90;94.80;;;;;;5069621;28;20038;-63
2021/09/06 06:33:53;;;;;;;17.52;13.20;;;13.90;94.80;;;;;;5046316;28;20456;-63
2021/09/06 06:36:19;;;;;;;20.08;13.43;;;13.90;94.90;;;;;;5053812;28;20036;-62
2021/09/06 06:38:46;;;;;;;18.60;13.80;;;13.90;95.00;;;;;;5071610;28;20028;-63
2021/09/06 06:41:12;;;;;;;20.08;14.45;;;14.00;95.10;;;;;;5054627;28;20408;-63
2021/09/06 06:43:37;;;;;;;22.38;14.77;;;14.10;95.20;;;;;;5072434;28;20476;-63
2021/09/06 06:46:03;;;;;;;19.13;14.57;;;14.10;95.20;;;;;;5072743;28;20028;-63
2021/09/06 06:48:29;;;;;;;22.52;15.45;;;14.20;95.30;;;;;;5067276;28;20022;-63
2021/09/06 06:50:54;;;;;;;21.00;15.07;;;14.20;95.30;;;;;;5054830;28;20027;-63
2021/09/06 06:53:20;;;;;;;20.75;15.32;;;14.20;95.40;;;;;;5069712;28;20024;-63
2021/09/06 06:55:45;;;;;;;21.40;14.50;;;14.30;95.50;;;;;;5063228;28;20074;-63
2021/09/06 06:58:11;;;;;;;22.55;15.48;;;14.40;95.50;;;;;;5056367;28;20043;-63
2021/09/06 07:00:36;;;;;;;22.45;16.83;;;14.40;95.60;;;;;;5061104;28;20387;-63
2021/09/06 07:03:02;;;;;;;22.58;15.18;;;14.50;95.70;;;;;;5065742;28;20033;-62
2021/09/06 07:05:28;;;;;;;20.80;15.20;;;14.50;95.70;;;;;;5052634;28;20025;-62
2021/09/06 07:07:53;;;;;;;22.70;15.73;;;14.60;95.80;;;;;;5035070;28;20040;-63
2021/09/06 07:10:19;;;;;;;24.70;17.00;;;14.60;95.80;;;;;;5057821;28;20100;-62
2021/09/06 07:12:44;;;;;;;24.95;16.45;;;14.70;95.90;;;;;;5071499;28;20028;-62
2021/09/06 07:15:11;;;;;;;20.33;15.38;;;14.80;96.00;;;;;;5071904;28;20100;-62
2021/09/06 07:17:44;;;;;;;21.75;16.00;;;14.80;96.10;;;;;;5071807;28;20055;-63
2021/09/06 07:20:09;;;;;;;20.38;15.13;;;14.90;96.10;;;;;;5048476;28;20029;-63
2021/09/06 07:22:35;;;;;;;18.35;14.43;;;14.90;96.20;;;;;;5068014;28;20174;-63
2021/09/06 07:25:01;;;;;;;22.90;16.00;;;15.00;96.20;;;;;;5062259;28;20032;-63
2021/09/06 07:27:26;;;;;;;22.90;16.73;;;15.10;96.30;;;;;;5051883;28;20513;-63
2021/09/06 07:29:52;;;;;;;22.23;15.23;;;15.20;96.30;;;;;;5052613;28;20020;-63
2021/09/06 07:32:18;;;;;;;20.60;15.48;;;15.20;96.30;;;;;;5068998;28;20488;-62
2021/09/06 07:34:43;;;;;;;18.98;14.38;;;15.30;96.40;;;;;;5052335;28;20036;-63
2021/09/06 07:37:09;;;;;;;20.42;14.85;;;15.40;96.40;;;;;;5034607;28;20021;-63
2021/09/06 07:39:36;;;;;;;21.77;16.27;;;15.50;96.40;;;;;;5059329;28;20117;-63
2021/09/06 07:42:02;;;;;;;22.88;16.63;;;15.60;96.50;;;;;;5058923;28;20554;-63
2021/09/06 07:44:28;;;;;;;22.75;16.35;;;15.70;96.50;;;;;;5052066;28;20064;-63
2021/09/06 07:46:55;;;;;;;19.75;15.30;;;15.70;96.50;;;;;;5052295;28;20021;-63
2021/09/06 07:49:21;;;;;;;20.00;15.10;;;15.80;96.60;;;;;;5034236;28;20021;-62
2021/09/06 07:52:16;;;;;;;23.08;16.65;;;15.90;96.50;;;;;;5044483;28;20017;-63
2021/09/06 07:54:41;;;;;;;22.23;16.08;;;16.10;96.50;;;;;;5050262;28;20037;-63
2021/09/06 07:57:07;;;;;;;22.60;16.65;;;16.10;96.60;;;;;;5056380;28;20021;-63
2021/09/06 07:59:32;;;;;;;22.70;17.55;;;16.20;96.60;;;;;;5056165;28;20025;-63
2021/09/06 08:01:58;;;;;;;19.98;16.30;;;16.30;96.60;;;;;;5056228;28;20033;-63
2021/09/06 08:04:26;;;;;;;22.63;16.33;;;16.40;96.60;;;;;;5038174;28;20028;-63
2021/09/06 08:06:51;;;;;;;18.50;14.73;;;16.50;96.60;;;;;;5038270;28;20542;-63
2021/09/06 08:09:17;;;;;;;20.10;15.10;;;16.60;96.60;;;;;;5056065;28;20028;-63
2021/09/06 08:11:56;;;;;;;;;;;;;;;;;;;;;
2021/09/06 08:14:23;;;;;;;21.20;15.05;;;16.80;96.60;;;;;;5055922;28;20021;-63
2021/09/06 08:16:57;;;;;;;22.48;16.58;;;16.90;96.60;;;;;;5038097;28;20036;-63
2021/09/06 08:19:26;;;;;;;19.67;15.55;;;17.00;96.50;;;;;;5055697;28;20096;-63
2021/09/06 08:21:53;;;;;;;19.50;15.02;;;17.10;96.40;;;;;;5055721;28;20021;-63
2021/09/06 08:24:19;;;;;;;19.40;14.88;;;17.20;96.40;;;;;;5037816;28;20025;-63
2021/09/06 08:26:44;;;;;;;20.65;14.07;;;17.30;96.40;;;;;;5055649;28;20071;-63
2021/09/06 08:29:20;;;;;;;19.48;14.57;;;17.40;96.40;;;;;;5055698;28;20025;-63
2021/09/06 08:31:46;;;;;;;18.35;13.93;;;17.50;96.30;;;;;;5055615;28;20029;-63
2021/09/06 08:34:12;;;;;;;21.55;15.30;;;17.60;96.20;;;;;;5055762;28;20025;-63
2021/09/06 08:36:37;;;;;;;18.25;14.85;;;17.70;96.20;;;;;;5055606;28;20102;-63
2021/09/06 08:39:03;;;;;;;17.40;14.00;;;17.80;96.10;;;;;;5058208;28;20029;-63
2021/09/06 08:41:30;;;;;;;17.90;14.00;;;17.90;96.10;;;;;;5066512;28;20049;-63
2021/09/06 08:43:56;;;;;;;18.10;14.63;;;18.00;96.00;;;;;;5055327;28;20033;-63
2021/09/06 08:46:23;;;;;;;21.10;16.40;;;18.20;95.90;;;;;;5055346;28;20052;-63
2021/09/06 08:48:49;;;;;;;20.05;16.15;;;18.20;95.80;;;;;;5055343;28;20031;-64
2021/09/06 08:51:15;;;;;;;22.45;16.65;;;18.30;95.70;;;;;;5055252;28;20044;-64
2021/09/06 08:53:41;;;;;;;20.20;16.10;;;18.40;95.60;;;;;;5067010;28;20047;-64
2021/09/06 08:56:06;;;;;;;22.00;15.32;;;18.50;95.50;;;;;;5058365;28;20493;-64
2021/09/06 08:58:32;;;;;;;16.42;13.80;;;18.60;95.40;;;;;;5046676;28;20033;-63
2021/09/06 09:00:58;;;;;;;23.02;15.90;;;18.70;95.30;;;;;;5059482;28;20032;-64
2021/09/06 09:03:23;;;;;;;19.10;14.82;;;18.80;95.20;;;;;;5073900;28;20052;-63
2021/09/06 09:06:05;;;;;;;22.95;15.93;;;18.80;95.00;;;;;;5063517;28;20017;-63
2021/09/06 09:08:32;;;;;;;18.45;13.90;;;19.00;94.80;;;;;;5031587;28;20014;-64
2021/09/06 09:11:04;;;;;;;20.08;15.15;;;19.00;94.70;;;;;;5066384;28;20016;-64
2021/09/06 09:14:04;;;;;;;21.00;15.77;;;19.20;94.50;;;;;;5074487;28;20437;-64
2021/09/06 09:16:29;;;;;;;16.90;12.82;;;19.30;94.20;;;;;;5054132;28;20032;-64
2021/09/06 09:19:09;;;;;;;17.67;13.55;;;19.40;94.10;;;;;;5037648;28;20025;-64
2021/09/06 09:21:35;;;;;;;16.77;12.95;;;19.60;93.80;;;;;;5054794;28;20025;-64
2021/09/06 09:24:01;;;;;;;15.60;12.20;;;19.60;93.60;;;;;;5054561;28;20033;-64
2021/09/06 09:26:28;;;;;;;12.60;10.07;;;19.80;93.30;;;;;;5054671;28;20063;-63
2021/09/06 09:28:54;;;;;;;15.18;12.00;;;19.90;93.10;;;;;;5040633;28;20021;-63
2021/09/06 09:31:21;;;;;;;13.90;11.88;;;20.00;92.80;;;;;;5054678;28;20487;-63
2021/09/06 09:33:53;;;;;;;15.55;12.27;;;20.10;92.50;;;;;;5054430;28;20056;-63
2021/09/06 09:36:33;;;;;;;14.20;11.05;;;20.30;92.20;;;;;;5054491;28;20047;-63
2021/09/06 09:39:16;;;;;;;13.93;11.07;;;20.40;91.90;;;;;;5056399;28;20104;-64
2021/09/06 09:41:44;;;;;;;15.50;11.43;;;20.50;91.50;;;;;;5065249;28;20053;-63
2021/09/06 09:44:11;;;;;;;12.48;9.18;;;20.60;91.30;;;;;;5073586;28;20035;-63
2021/09/06 09:46:37;;;;;;;10.73;8.68;;;20.70;91.10;;;;;;5073658;28;20026;-64
2021/09/06 09:49:13;;;;;;;11.35;8.20;;;20.90;90.80;;;;;;5073958;28;20021;-63
2021/09/06 09:51:39;;;;;;;9.98;8.23;;;21.10;90.40;;;;;;5067978;28;20013;-64
2021/09/06 09:54:13;;;;;;;10.10;8.27;;;21.20;90.20;;;;;;5055699;28;20036;-64
2021/09/06 09:56:41;;;;;;;10.02;8.13;;;21.30;89.90;;;;;;5062135;28;20035;-64
2021/09/06 09:59:06;;;;;;;8.90;6.80;;;21.40;89.00;;;;;;5073425;28;20040;-64
2021/09/06 10:01:39;;;;;;;12.35;7.63;;;21.50;88.50;;;;;;5053779;28;20070;-64
2021/09/06 10:04:06;;;;;;;11.57;8.77;;;21.70;87.80;;;;;;5068727;28;20025;-64
2021/09/06 10:06:33;;;;;;;13.48;9.55;;;21.80;86.50;;;;;;5070188;28;20375;-64
2021/09/06 10:08:59;;;;;;;9.63;7.35;;;21.90;84.90;;;;;;5073284;28;20099;-64
2021/09/06 10:11:39;;;;;;;11.57;7.82;;;22.00;84.80;;;;;;5051383;28;20652;-64
2021/09/06 10:14:22;;;;;;;13.90;9.52;;;22.20;84.10;;;;;;5071551;28;20027;-64
2021/09/06 10:16:59;;;;;;;11.77;8.32;;;22.40;84.10;;;;;;5065287;28;20561;-64
2021/09/06 10:19:38;;;;;;;10.30;8.50;;;22.50;83.60;;;;;;5035955;28;20029;-64
2021/09/06 10:22:04;;;;;;;9.30;7.55;;;22.70;82.60;;;;;;5053557;28;20427;-63
2021/09/06 10:24:29;;;;;;;8.60;6.82;;;22.90;82.30;;;;;;5035661;28;20507;-64
2021/09/06 10:27:04;;;;;;;9.10;7.00;;;23.10;81.70;;;;;;5053353;28;20021;-64
2021/09/06 10:29:30;;;;;;;10.88;7.65;;;23.30;80.80;;;;;;5053605;28;20087;-64
2021/09/06 10:32:21;;;;;;;9.18;7.05;;;23.60;80.30;;;;;;5053173;28;20033;-64
2021/09/06 10:34:47;;;;;;;8.27;6.60;;;23.80;79.20;;;;;;5052150;28;20094;-64
2021/09/06 10:37:13;;;;;;;7.80;6.95;;;24.00;78.90;;;;;;5068885;28;20056;-64
2021/09/06 10:39:46;;;;;;;7.40;6.55;;;24.30;77.90;;;;;;5071555;28;20024;-64
2021/09/06 10:42:15;;;;;;;8.32;6.90;;;24.60;76.70;;;;;;5065921;28;20102;-64
2021/09/06 10:44:41;;;;;;;7.55;5.93;;;24.80;76.30;;;;;;5053166;28;20024;-64
2021/09/06 10:47:10;;;;;;;7.03;5.72;;;25.00;75.30;;;;;;5052942;28;20029;-64
2021/09/06 10:49:40;;;;;;;8.02;5.50;;;25.30;74.60;;;;;;5053186;28;20030;-64
2021/09/06 10:52:06;;;;;;;8.73;5.57;;;25.60;73.70;;;;;;5043810;28;20068;-64
2021/09/06 10:54:33;;;;;;;8.23;6.47;;;26.10;74.20;;;;;;5046105;28;20077;-64
2021/09/06 10:56:59;;;;;;;5.93;4.63;;;27.00;72.90;;;;;;5067235;28;20013;-64
2021/09/06 10:59:25;;;;;;;5.13;4.45;;;28.70;69.60;;;;;;5056972;28;20028;-64
2021/09/06 11:01:53;;;;;;;6.57;4.60;;;30.40;65.00;;;;;;5053024;28;20029;-65
2021/09/06 11:04:23;;;;;;;6.20;5.13;;;31.80;60.50;;;;;;5057233;28;20028;-64
2021/09/06 11:07:07;;;;;;;4.32;3.92;;;32.80;56.70;;;;;;5068899;28;20059;-64
2021/09/06 11:09:34;;;;;;;5.70;4.80;;;32.90;54.30;;;;;;5066879;28;20025;-64
2021/09/06 11:12:09;;;;;;;5.57;4.63;;;32.40;53.30;;;;;;5071218;28;20544;-64
2021/09/06 11:14:45;;;;;;;6.03;5.43;;;32.30;53.40;;;;;;5071245;28;20032;-64
2021/09/06 11:17:20;;;;;;;8.95;6.80;;;32.00;52.70;;;;;;5043955;28;20075;-64
2021/09/06 11:19:48;;;;;;;6.63;5.95;;;31.40;50.70;;;;;;5071336;28;20024;-64
2021/09/06 11:22:16;;;;;;;5.75;4.90;;;31.50;51.60;;;;;;5052006;28;20055;-64
2021/09/06 11:24:42;;;;;;;4.90;4.25;;;32.70;51.40;;;;;;5067328;28;20054;-65
2021/09/06 11:27:29;;;;;;;5.22;4.68;;;34.70;50.10;;;;;;5053042;28;20380;-65
2021/09/06 11:29:55;;;;;;;6.03;5.43;;;36.00;46.30;;;;;;5067389;28;20372;-65
2021/09/06 11:32:21;;;;;;;6.78;4.68;;;36.40;44.40;;;;;;5071153;28;20099;-65
2021/09/06 11:35:01;;;;;;;7.57;4.65;;;37.50;44.10;;;;;;5071010;28;20104;-65
2021/09/06 11:37:26;;;;;;;7.00;4.88;;;38.50;43.00;;;;;;5069587;28;20027;-65
2021/09/06 11:39:53;;;;;;;4.97;4.47;;;39.20;42.40;;;;;;5052658;28;20052;-65
2021/09/06 11:42:19;;;;;;;5.70;5.20;;;40.00;41.80;;;;;;5050362;28;20025;-65
2021/09/06 11:44:46;;;;;;;5.00;4.60;;;40.60;40.90;;;;;;5051394;28;20553;-65
2021/09/06 11:47:12;;;;;;;4.85;4.45;;;40.40;40.40;;;;;;5053392;28;20444;-65
2021/09/06 11:49:38;;;;;;;5.50;5.00;;;40.20;40.30;;;;;;5062515;28;20064;-65
2021/09/06 11:52:10;;;;;;;5.68;5.13;;;40.00;40.20;;;;;;5064836;28;20081;-65
2021/09/06 11:54:44;;;;;;;5.43;4.93;;;39.50;40.00;;;;;;5070720;28;20024;-65
2021/09/06 11:57:11;;;;;;;5.05;4.55;;;39.10;39.90;;;;;;5068318;28;20507;-65
2021/09/06 11:59:37;;;;;;;5.70;4.70;;;38.70;40.20;;;;;;5068800;28;20016;-64
2021/09/06 12:02:11;;;;;;;5.18;4.72;;;38.10;40.20;;;;;;5070406;28;20023;-64
2021/09/06 12:04:39;;;;;;;5.82;5.32;;;37.90;40.20;;;;;;5069424;28;20554;-64
2021/09/06 12:07:18;;;;;;;6.05;5.45;;;39.20;39.80;;;;;;5067543;28;20028;-65
2021/09/06 12:09:45;;;;;;;5.90;5.35;;;40.80;38.40;;;;;;5070065;28;20048;-65
2021/09/06 12:12:19;;;;;;;6.85;6.10;;;41.90;37.40;;;;;;5068021;28;20012;-65
2021/09/06 12:14:47;;;;;;;5.50;5.00;;;42.90;36.50;;;;;;5067189;28;20027;-65
2021/09/06 12:17:12;;;;;;;6.10;5.50;;;43.70;35.90;;;;;;5052683;28;20486;-65
2021/09/06 12:19:46;;;;;;;6.38;5.78;;;43.80;35.30;;;;;;5052734;28;20025;-65
2021/09/06 12:22:20;;;;;;;6.90;6.20;;;44.60;35.00;;;;;;5068999;28;20396;-65
2021/09/06 12:25:02;;;;;;;6.25;5.38;;;45.10;34.40;;;;;;5047392;28;20125;-65
2021/09/06 12:27:34;;;;;;;7.63;5.60;;;45.50;34.30;;;;;;5052730;28;20553;-65
2021/09/06 12:29:59;;;;;;;6.60;5.88;;;45.20;34.20;;;;;;5062102;28;20020;-65
2021/09/06 12:32:27;;;;;;;6.35;5.75;;;45.00;34.30;;;;;;5067903;28;20376;-65
2021/09/06 12:34:53;;;;;;;7.18;6.57;;;45.10;34.20;;;;;;5070150;28;20025;-65
2021/09/06 12:37:22;;;;;;;6.72;6.13;;;45.00;33.90;;;;;;5071925;28;20027;-65